Streetsville, Canada
Current Conditions -  °F | °C
As of 12:00 AM on Thursday 23 Oct 2014 (Local Time) from CYYZ Reporting Station
Scattered Clouds Scattered Clouds  
Wind Chill: 41°   Ceiling: Unl
Heat Index: 46°   Visibility: 15mi
Dew Point: 41°   Wind: 13mph
Humidity: 81%   Direction: 350°N
Pressure: 30.23"   Gusts: NA
Location:  43.58°N, 79.72°W
Report Text: CYYZ 230400Z 35011KT 15SM SCT045 08/05 A3023 RMK SC3 SLP242
Loading
Personal Weather Stations






























Interactive Weather Map
Tropical Storm Tracking
New forecast layout! Learn more

10-Day Weather Forecast

Advertisements
Track Severe Weather on mobile